Time;durP1;ratioP1;P1;durP2;ratioP2;P2;SDS_P1;SDS_P2;PMS_P1;PMS_P2;Temp;Humidity;BMP_temperature;BMP_pressure;BME280_temperature;BME280_humidity;BME280_pressure;Samples;Min_cycle;Max_cycle;Signal;HPM_P1;HPM_P2
2021/11/09 00:02:10;;;;;;;9.05;4.97;;;;;;;5.50;81.24;99688.73;1665638;85;21376;-79
2021/11/09 00:04:42;;;;;;;10.18;4.90;;;;;;;5.47;81.39;99688.74;1675716;84;21813;-78
2021/11/09 00:09:59;;;;;;;10.70;4.60;;;;;;;5.42;81.67;99687.40;1705477;82;20846;-79
2021/11/09 00:12:31;;;;;;;9.30;4.25;;;;;;;5.42;82.36;99690.67;1695825;83;20911;-80
2021/11/09 00:15:06;;;;;;;8.50;4.72;;;;;;;5.43;82.66;99693.66;1640731;86;20989;-80
2021/11/09 00:17:36;;;;;;;10.88;4.90;;;;;;;5.46;82.76;99699.91;1724990;82;21190;-78
2021/11/09 00:20:11;;;;;;;12.73;4.83;;;;;;;5.48;83.01;99701.81;1689923;83;20902;-79
2021/11/09 00:22:40;;;;;;;10.25;5.08;;;;;;;5.50;83.06;99700.44;1678003;84;20876;-78
2021/11/09 00:25:14;;;;;;;11.20;4.42;;;;;;;5.51;83.11;99695.81;1639438;86;20991;-78
2021/11/09 00:27:46;;;;;;;10.25;4.55;;;;;;;5.50;83.37;99696.36;1704329;84;21431;-76
2021/11/09 00:30:17;;;;;;;7.80;4.25;;;;;;;5.51;83.37;99702.62;1698672;84;21171;-77
2021/11/09 00:32:49;;;;;;;6.83;4.30;;;;;;;5.51;83.70;99702.62;1704602;84;21430;-76
2021/11/09 00:35:21;;;;;;;7.17;4.58;;;;;;;5.51;83.70;99703.98;1699709;84;20923;-78
2021/11/09 00:37:54;;;;;;;9.43;4.53;;;;;;;5.51;83.71;99706.16;1703417;84;20847;-78
2021/11/09 00:40:25;;;;;;;10.55;4.45;;;;;;;5.52;83.82;99704.25;1721410;82;20971;-78
2021/11/09 00:42:56;;;;;;;7.53;3.90;;;;;;;5.51;83.89;99706.70;1704354;83;21423;-81
2021/11/09 00:45:23;;;;;;;5.80;3.77;;;;;;;5.50;83.89;99699.62;1720281;83;20868;-81
2021/11/09 00:47:54;;;;;;;8.08;4.08;;;;;;;5.50;84.02;99702.34;1716708;82;21040;-79
2021/11/09 00:50:24;;;;;;;8.78;4.00;;;;;;;5.50;84.14;99714.05;1703633;83;20911;-79
2021/11/09 00:53:04;;;;;;;8.40;4.50;;;;;;;5.51;84.17;99713.51;1698322;83;20936;-79
2021/11/09 00:55:29;;;;;;;7.08;4.10;;;;;;;5.51;84.31;99712.96;1725065;83;21158;-79
2021/11/09 00:57:58;;;;;;;6.97;4.22;;;;;;;5.52;84.37;99708.33;1711726;82;20894;-79
2021/11/09 01:00:32;;;;;;;12.37;4.28;;;;;;;5.53;84.47;99708.59;1711166;83;20935;-78
2021/11/09 01:03:12;;;;;;;11.70;4.40;;;;;;;5.55;84.51;99710.50;1698446;83;21246;-78
2021/11/09 01:05:42;;;;;;;8.70;4.58;;;;;;;5.56;84.60;99712.95;1720317;83;20919;-80
2021/11/09 01:08:16;;;;;;;9.10;4.08;;;;;;;5.58;84.76;99705.86;1681742;84;20936;-80
2021/11/09 01:10:52;;;;;;;5.83;3.87;;;;;;;5.60;84.82;99711.30;1670893;83;20892;-81
2021/11/09 01:13:24;;;;;;;10.10;4.17;;;;;;;5.62;84.82;99713.19;1721049;83;20932;-83
2021/11/09 01:15:57;;;;;;;6.95;3.95;;;;;;;5.64;84.82;99713.73;1720136;83;21489;-83
2021/11/09 01:18:34;;;;;;;8.63;4.25;;;;;;;5.66;84.95;99714.00;1705866;82;21410;-79
2021/11/09 01:21:12;;;;;;;7.90;3.83;;;;;;;5.66;84.91;99716.17;1678891;84;21457;-78
2021/11/09 01:23:44;;;;;;;7.70;3.60;;;;;;;5.68;84.93;99723.52;1724091;83;20931;-80
2021/11/09 01:26:16;;;;;;;6.83;3.45;;;;;;;5.70;85.05;99715.88;1709489;82;20856;-79
2021/11/09 01:28:44;;;;;;;7.95;4.33;;;;;;;5.72;85.14;99722.41;1689456;84;20881;-82
2021/11/09 01:31:17;;;;;;;9.80;4.65;;;;;;;5.72;85.08;99727.31;1670061;84;21053;-81
2021/11/09 01:33:47;;;;;;;9.95;4.65;;;;;;;5.74;85.15;99722.95;1652364;85;20920;-81
2021/11/09 01:36:18;;;;;;;8.23;4.35;;;;;;;5.74;85.28;99727.84;1682583;83;20894;-80
2021/11/09 01:38:53;;;;;;;8.38;4.37;;;;;;;5.75;85.41;99733.56;1670470;84;21450;-80
2021/11/09 01:41:24;;;;;;;7.37;4.40;;;;;;;5.75;85.66;99733.56;1720099;82;20968;-82
2021/11/09 01:43:53;;;;;;;8.40;4.80;;;;;;;5.74;85.73;99733.84;1703576;83;20919;-82
2021/11/09 01:46:26;;;;;;;8.93;4.15;;;;;;;5.75;85.85;99734.11;1675024;84;20931;-83
2021/11/09 01:49:10;;;;;;;8.40;4.67;;;;;;;5.75;86.04;99734.93;1642969;85;21006;-82
2021/11/09 01:51:41;;;;;;;9.90;5.20;;;;;;;5.76;86.05;99739.83;1688481;82;20955;-83
2021/11/09 01:54:15;;;;;;;8.35;4.60;;;;;;;5.77;86.09;99745.00;1661846;85;20955;-83
2021/11/09 01:56:50;;;;;;;9.83;4.58;;;;;;;5.76;86.16;99748.81;1671824;85;20974;-83
2021/11/09 01:59:28;;;;;;;12.00;5.08;;;;;;;5.76;86.24;99749.37;1654359;85;21157;-82
2021/11/09 02:01:57;;;;;;;10.30;4.90;;;;;;;5.74;86.46;99751.01;1657399;85;21457;-80
2021/11/09 02:04:27;;;;;;;9.28;4.83;;;;;;;5.72;86.63;99747.75;1635624;85;21041;-83
2021/11/09 02:06:59;;;;;;;9.90;5.72;;;;;;;5.73;86.71;99756.19;1622840;86;20944;-85
2021/11/09 02:09:28;;;;;;;11.35;6.00;;;;;;;5.74;86.90;99761.90;1659743;85;20883;-75
2021/11/09 02:11:59;;;;;;;14.83;6.00;;;;;;;5.72;87.38;99753.19;1662629;85;21155;-74
2021/11/09 02:14:28;;;;;;;10.03;5.83;;;;;;;5.73;87.57;99753.46;1635807;87;20916;-73
2021/11/09 02:16:54;;;;;;;11.85;5.45;;;;;;;5.72;87.82;99751.02;1660887;85;21026;-74
2021/11/09 02:19:26;;;;;;;10.78;5.20;;;;;;;5.71;88.34;99753.47;1656407;84;21547;-74
2021/11/09 02:21:56;;;;;;;9.78;5.87;;;;;;;5.70;88.43;99758.65;1661739;85;20924;-74
2021/11/09 02:24:28;;;;;;;10.70;6.20;;;;;;;5.71;88.60;99761.64;1725211;83;21141;-74
2021/11/09 02:27:01;;;;;;;9.18;5.35;;;;;;;5.72;88.82;99761.91;1698409;82;20945;-74
2021/11/09 02:29:33;;;;;;;11.30;6.05;;;;;;;5.73;88.96;99754.00;1726428;83;21400;-74
2021/11/09 02:32:07;;;;;;;9.63;5.42;;;;;;;5.75;89.13;99758.63;1726535;83;20882;-74
2021/11/09 02:34:40;;;;;;;11.43;6.28;;;;;;;5.74;89.22;99753.73;1718187;82;20917;-74
2021/11/09 02:37:13;;;;;;;9.63;5.95;;;;;;;5.75;89.28;99758.08;1726105;81;21093;-74
2021/11/09 02:39:44;;;;;;;9.83;6.22;;;;;;;5.75;89.32;99766.80;1723347;83;21494;-75
2021/11/09 02:42:14;;;;;;;10.80;6.45;;;;;;;5.74;89.36;99776.88;1695306;83;21472;-74
2021/11/09 02:45:01;;;;;;;11.25;6.28;;;;;;;5.74;89.64;99778.80;1710280;83;20908;-75
2021/11/09 02:47:33;;;;;;;9.75;6.60;;;;;;;5.71;89.62;99777.44;1719638;83;21524;-75
2021/11/09 02:50:07;;;;;;;10.30;6.22;;;;;;;5.68;89.71;99788.08;1698057;83;21796;-74
2021/11/09 02:52:36;;;;;;;10.85;6.10;;;;;;;5.63;89.90;99784.27;1690657;84;20987;-73
2021/11/09 02:55:09;;;;;;;11.28;5.85;;;;;;;5.61;90.23;99791.91;1683243;84;20963;-74
2021/11/09 02:57:52;;;;;;;9.80;4.67;;;;;;;5.59;90.36;99795.45;1659204;85;20995;-74
2021/11/09 03:02:52;;;;;;;6.28;3.95;;;;;;;5.60;89.11;99806.61;1658354;85;21437;-73
2021/11/09 03:05:45;;;;;;;7.67;3.92;;;;;;;5.62;88.87;99809.06;1683781;83;21582;-74
2021/11/09 03:08:41;;;;;;;5.87;2.65;;;;;;;5.62;88.57;99800.89;1687646;84;20892;-74
2021/11/09 03:11:04;;;;;;;5.15;2.30;;;;;;;5.61;87.41;99802.80;1695841;84;21528;-74
2021/11/09 03:13:44;;;;;;;4.50;2.15;;;;;;;5.58;85.09;99801.17;1697279;83;21411;-73
2021/11/09 03:16:18;;;;;;;3.27;1.80;;;;;;;5.54;84.22;99806.90;1690729;83;20927;-74
2021/11/09 03:18:55;;;;;;;2.87;1.85;;;;;;;5.50;84.11;99809.91;1710033;83;21418;-73
2021/11/09 03:40:30;;;;;;;6.67;2.70;;;;;;;5.22;81.53;99833.90;1704262;83;20924;-74
2021/11/09 03:45:45;;;;;;;18.32;5.00;;;;;;;5.11;82.08;99844.55;1722418;83;20857;-74
2021/11/09 03:48:17;;;;;;;21.05;5.40;;;;;;;5.08;82.53;99850.53;1688881;83;20964;-74
2021/11/09 03:50:50;;;;;;;10.93;3.47;;;;;;;5.06;83.10;99854.61;1691206;84;21428;-73
2021/11/09 03:53:20;;;;;;;7.55;2.60;;;;;;;5.03;83.38;99854.61;1688245;84;20929;-73
2021/11/09 04:09:06;;;;;;;6.50;2.00;;;;;;;4.95;84.36;99851.07;1696557;84;21213;-76
2021/11/09 04:11:47;;;;;;;3.17;1.80;;;;;;;4.93;84.42;99860.05;1687818;83;20889;-75
2021/11/09 04:14:29;;;;;;;13.20;3.75;;;;;;;4.91;84.49;99863.03;1711303;83;20925;-75
2021/11/09 04:16:57;;;;;;;11.57;3.20;;;;;;;4.90;84.56;99866.03;1710122;82;20876;-74
2021/11/09 04:52:34;;;;;;;2.55;1.70;;;;;;;4.62;83.40;99897.28;1680070;84;20961;-73
2021/11/09 05:09:09;;;;;;;12.73;4.35;;;;;;;4.58;83.78;99907.88;1666604;84;20896;-74
2021/11/09 05:11:39;;;;;;;7.05;2.90;;;;;;;4.54;83.98;99908.67;1690199;83;21435;-74
2021/11/09 05:14:10;;;;;;;3.42;1.90;;;;;;;4.52;84.32;99913.02;1687459;84;20956;-75
2021/11/09 05:16:40;;;;;;;3.85;2.25;;;;;;;4.46;84.53;99910.01;1664329;84;21449;-75
2021/11/09 05:19:09;;;;;;;2.95;1.80;;;;;;;4.43;84.91;99918.70;1688360;84;21532;-76
2021/11/09 05:21:39;;;;;;;4.12;2.12;;;;;;;4.37;85.20;99927.91;1688637;84;20976;-75
2021/11/09 05:24:11;;;;;;;4.62;2.40;;;;;;;4.31;86.05;99935.22;1695211;84;20963;-75
2021/11/09 05:26:49;;;;;;;4.70;2.40;;;;;;;4.25;86.40;99938.19;1689425;83;20999;-74
2021/11/09 05:29:18;;;;;;;4.10;2.40;;;;;;;4.18;86.69;99945.75;1692033;84;21156;-75
2021/11/09 05:31:46;;;;;;;4.97;3.17;;;;;;;4.10;87.20;99949.78;1689395;84;20903;-74
2021/11/09 05:34:17;;;;;;;9.08;2.70;;;;;;;4.05;87.67;99957.09;1684771;84;20916;-74
2021/11/09 05:36:49;;;;;;;4.90;2.80;;;;;;;4.02;88.12;99954.92;1660092;83;20955;-75
2021/11/09 05:39:32;;;;;;;5.28;2.77;;;;;;;3.99;88.33;99965.78;1678499;83;20946;-75
2021/11/09 05:42:02;;;;;;;6.92;2.70;;;;;;;3.94;88.56;99966.56;1679616;84;20983;-74
2021/11/09 05:44:29;;;;;;;7.67;2.30;;;;;;;3.88;88.74;99970.33;1702604;83;20860;-74
2021/11/09 05:46:59;;;;;;;5.15;2.05;;;;;;;3.81;88.78;99969.73;1701143;84;20904;-75
2021/11/09 05:49:31;;;;;;;7.47;3.08;;;;;;;3.75;89.23;99976.20;1669861;84;20947;-75
2021/11/09 05:52:05;;;;;;;6.95;2.30;;;;;;;3.69;89.57;99977.24;1699868;84;20875;-75
2021/11/09 05:54:37;;;;;;;6.35;2.85;;;;;;;3.68;90.11;99974.78;1688269;84;21492;-73
2021/11/09 05:57:12;;;;;;;5.22;2.30;;;;;;;3.68;90.14;99987.00;1682457;84;20963;-73
2021/11/09 05:59:43;;;;;;;8.03;3.17;;;;;;;3.65;90.46;99982.91;1700287;84;20867;-73
2021/11/09 06:02:14;;;;;;;7.62;3.27;;;;;;;3.66;90.54;99980.47;1703624;84;20918;-73
2021/11/09 06:04:52;;;;;;;;;;;;;;;3.67;90.54;99988.90;1705150;84;21453;-72
2021/11/09 06:07:18;;;;;;;19.37;4.78;;;;;;;3.68;90.56;99995.97;1697982;84;21150;-73
2021/11/09 06:09:48;;;;;;;6.95;3.45;;;;;;;3.72;90.46;100003.06;1691177;84;20919;-74
2021/11/09 06:12:15;;;;;;;4.60;2.12;;;;;;;3.74;90.11;100009.87;1700754;84;20879;-73
2021/11/09 06:14:46;;;;;;;2.95;1.60;;;;;;;3.74;89.05;100008.51;1675432;84;20971;-73
2021/11/09 06:17:18;;;;;;;5.28;1.65;;;;;;;3.75;88.92;100016.12;1663032;84;26967;-78
2021/11/09 06:19:53;;;;;;;4.35;2.17;;;;;;;3.79;88.66;100019.95;1705233;83;21881;-74
2021/11/09 06:22:25;;;;;;;3.67;1.87;;;;;;;3.85;88.33;100026.52;1714418;83;28609;-73
2021/11/09 06:25:02;;;;;;;4.92;2.05;;;;;;;4.47;87.00;100031.27;1696316;83;20952;-74
2021/11/09 06:27:31;;;;;;;3.10;1.60;;;;;;;4.47;87.00;100031.27;1699947;83;21418;-74
2021/11/09 06:30:07;;;;;;;2.75;1.50;;;;;;;4.95;83.38;100040.16;1697820;84;21129;-72
2021/11/09 06:32:39;;;;;;;3.15;1.87;;;;;;;5.17;81.72;100041.33;1682685;84;21065;-73
2021/11/09 06:35:06;;;;;;;4.12;2.15;;;;;;;5.14;79.46;100050.84;1689010;84;20993;-76
2021/11/09 06:37:35;;;;;;;2.42;1.65;;;;;;;4.98;79.38;100057.31;1682632;84;21023;-76
2021/11/09 06:40:04;;;;;;;3.20;2.22;;;;;;;4.74;79.21;100064.27;1666160;85;20952;-80
2021/11/09 06:42:39;;;;;;;4.53;2.62;;;;;;;4.51;79.45;100069.08;1664140;84;20951;-79
2021/11/09 06:45:08;;;;;;;3.83;2.05;;;;;;;4.35;79.80;100068.70;1688514;84;21529;-78
2021/11/09 06:47:41;;;;;;;11.57;2.72;;;;;;;4.34;80.20;100073.04;1715341;83;20896;-78
2021/11/09 06:50:09;;;;;;;11.10;3.27;;;;;;;4.82;80.59;100077.37;1700014;83;21435;-77
2021/11/09 06:52:43;;;;;;;10.63;4.95;;;;;;;5.58;78.91;100080.33;1720390;83;20974;-75
2021/11/09 06:55:12;;;;;;;13.03;3.72;;;;;;;6.34;74.81;100090.45;1703511;83;20963;-76
2021/11/09 06:57:42;;;;;;;3.30;1.87;;;;;;;6.77;72.41;100094.44;1700850;83;21136;-77
2021/11/09 07:00:15;;;;;;;6.75;2.45;;;;;;;6.67;69.82;100097.19;1692072;84;21413;-77
2021/11/09 07:02:44;;;;;;;3.75;2.20;;;;;;;6.22;70.58;100099.73;1668198;84;21228;-85
2021/11/09 07:05:10;;;;;;;12.55;3.52;;;;;;;5.78;70.83;100106.21;1725493;83;20929;-77
2021/11/09 07:07:44;;;;;;;5.67;2.67;;;;;;;5.50;72.17;100118.98;1698057;83;20886;-80
2021/11/09 07:10:16;;;;;;;3.17;2.40;;;;;;;5.21;71.96;100126.23;1712394;83;21194;-79
2021/11/09 07:12:43;;;;;;;6.35;2.08;;;;;;;4.91;73.27;100131.56;1711344;82;20928;-80
2021/11/09 07:15:12;;;;;;;3.95;2.20;;;;;;;4.74;73.89;100130.91;1702583;83;20969;-78
2021/11/09 07:17:40;;;;;;;5.70;2.10;;;;;;;4.58;74.22;100129.48;1705189;83;20919;-78
2021/11/09 07:20:12;;;;;;;6.33;2.95;;;;;;;4.44;74.43;100135.09;1690531;84;20933;-79
2021/11/09 07:22:46;;;;;;;3.27;2.17;;;;;;;4.33;75.33;100142.89;1705676;83;25244;-83
2021/11/09 07:25:16;;;;;;;4.22;2.27;;;;;;;4.21;75.68;100145.78;1655839;85;20882;-89
2021/11/09 07:27:46;;;;;;;2.90;1.95;;;;;;;4.10;75.95;100151.39;1664977;84;20960;-78
2021/11/09 07:30:22;;;;;;;4.50;2.05;;;;;;;4.00;76.89;100152.14;1659421;86;22521;-79
2021/11/09 07:32:53;;;;;;;4.25;2.12;;;;;;;4.00;76.89;100152.14;1687914;84;20915;-77
2021/11/09 07:35:21;;;;;;;9.60;2.50;;;;;;;3.98;76.62;100152.41;1679820;84;21211;-77
2021/11/09 07:37:51;;;;;;;6.97;2.70;;;;;;;3.99;77.03;100157.30;1661044;84;20907;-75
2021/11/09 07:40:20;;;;;;;7.70;2.65;;;;;;;4.00;76.81;100158.94;1665907;85;21514;-77
2021/11/09 07:42:49;;;;;;;4.00;2.08;;;;;;;4.02;76.83;100161.40;1698140;84;21047;-74
2021/11/09 07:45:21;;;;;;;5.12;2.33;;;;;;;4.08;76.67;100169.84;1689779;83;20969;-80
2021/11/09 07:47:59;;;;;;;6.35;3.45;;;;;;;4.16;76.08;100174.81;1706596;83;20875;-78
2021/11/09 07:50:29;;;;;;;2.43;1.73;;;;;;;4.17;74.64;100180.53;1714021;83;20882;-79
2021/11/09 07:53:03;;;;;;;3.45;1.55;;;;;;;4.15;74.56;100180.78;1703744;83;20894;-74
2021/11/09 07:55:38;;;;;;;2.20;1.60;;;;;;;4.19;74.95;100185.17;1723033;83;20931;-78
2021/11/09 07:58:06;;;;;;;5.20;2.37;;;;;;;4.22;74.68;100182.75;1658858;85;21007;-74
2021/11/09 08:00:39;;;;;;;3.98;1.80;;;;;;;4.23;73.96;100190.37;1711630;83;21841;-87
2021/11/09 08:03:21;;;;;;;2.98;1.40;;;;;;;4.20;74.70;100188.98;1706711;83;20877;-71
2021/11/09 08:08:36;;;;;;;3.42;1.90;;;;;;;4.17;75.75;100204.98;1682609;84;21431;-77
2021/11/09 08:10:58;;;;;;;7.20;2.15;;;;;;;4.17;75.75;100204.98;1695025;83;21536;-88
2021/11/09 08:13:29;;;;;;;7.45;2.40;;;;;;;4.14;74.93;100208.22;1679279;84;20946;-82
2021/11/09 08:16:01;;;;;;;4.12;2.65;;;;;;;4.14;74.75;100208.22;1681775;84;20860;-79
2021/11/09 08:18:31;;;;;;;8.58;2.42;;;;;;;4.13;74.11;100214.19;1705118;83;21402;-85
2021/11/09 08:20:59;;;;;;;4.40;1.70;;;;;;;4.11;74.12;100220.96;1698553;82;21491;-83
2021/11/09 08:23:32;;;;;;;3.90;1.70;;;;;;;4.08;73.27;100225.01;1721076;83;21453;-76
2021/11/09 08:26:03;;;;;;;11.83;2.27;;;;;;;3.99;73.15;100229.30;1691257;83;21381;-76
2021/11/09 08:28:34;;;;;;;7.15;3.45;;;;;;;3.86;74.08;100242.73;1726271;83;20846;-78
2021/11/09 08:31:08;;;;;;;7.97;3.83;;;;;;;3.82;74.17;100247.03;1668964;84;20875;-80
2021/11/09 08:33:37;;;;;;;5.60;3.02;;;;;;;3.83;73.91;100247.86;1659357;84;20956;-74
2021/11/09 08:36:09;;;;;;;2.58;1.98;;;;;;;3.84;73.51;100251.67;1666796;85;20915;-74
2021/11/09 08:38:37;;;;;;;3.40;1.47;;;;;;;3.92;71.85;100262.09;1672302;84;21860;-75
2021/11/09 08:41:08;;;;;;;6.42;1.42;;;;;;;4.00;71.53;100255.92;1654729;86;20920;-76
2021/11/09 08:43:39;;;;;;;7.67;1.80;;;;;;;4.13;70.68;100263.64;1679121;83;21487;-82
2021/11/09 08:46:16;;;;;;;3.02;1.62;;;;;;;4.13;70.68;100263.64;1711019;83;20934;-80
2021/11/09 08:48:44;;;;;;;4.72;2.65;;;;;;;4.17;69.53;100258.80;1704362;83;20914;-83
2021/11/09 08:51:12;;;;;;;3.55;1.98;;;;;;;4.23;70.32;100260.49;1704954;82;21766;-78
2021/11/09 08:53:54;;;;;;;2.62;1.75;;;;;;;4.23;70.32;100260.49;1695654;83;20869;-80
2021/11/09 08:56:29;;;;;;;10.08;3.77;;;;;;;4.32;70.33;100263.57;1717254;82;20878;-75
2021/11/09 09:04:19;;;;;;;10.48;4.80;;;;;;;4.30;69.73;100279.31;1690916;83;21908;-79
2021/11/09 09:06:53;;;;;;;9.15;4.37;;;;;;;4.37;69.19;100275.03;1713014;83;20898;-81
2021/11/09 09:09:20;;;;;;;3.47;2.17;;;;;;;4.43;67.46;100282.16;1701746;82;21032;-79
2021/11/09 09:11:48;;;;;;;3.45;2.20;;;;;;;4.40;66.10;100277.23;1706541;83;20891;-76
2021/11/09 09:14:19;;;;;;;3.15;1.77;;;;;;;4.77;66.15;100282.17;1690165;82;20943;-81
2021/11/09 09:16:48;;;;;;;6.10;2.17;;;;;;;5.34;64.82;100276.56;1723268;83;20835;-73
2021/11/09 09:19:15;;;;;;;5.12;2.10;;;;;;;5.68;62.73;100279.20;1709097;82;20925;-74
2021/11/09 09:21:49;;;;;;;4.58;2.35;;;;;;;5.73;63.17;100290.66;1725253;83;21503;-79
2021/11/09 09:29:44;;;;;;;3.25;1.70;;;;;;;5.51;63.21;100300.36;1698049;83;21219;-77
2021/11/09 09:57:12;;;;;;;4.12;2.95;;;;;;;4.87;64.83;100346.73;1693686;83;20959;-74
2021/11/09 09:59:45;;;;;;;3.60;1.70;;;;;;;5.26;63.95;100345.39;1700766;83;21652;-73
2021/11/09 10:02:25;;;;;;;3.72;1.90;;;;;;;5.48;63.08;100336.28;1716981;81;20971;-72
2021/11/09 10:05:09;;;;;;;6.47;3.30;;;;;;;5.50;63.14;100339.56;1715674;82;20979;-80
2021/11/09 10:07:47;;;;;;;6.55;3.55;;;;;;;5.51;61.10;100338.48;1708201;83;20868;-75
2021/11/09 10:10:17;;;;;;;11.15;4.80;;;;;;;5.41;60.70;100338.41;1704273;83;21202;-73
2021/11/09 10:13:00;;;;;;;11.33;5.12;;;;;;;5.42;60.00;100340.88;1676799;84;20963;-78
2021/11/09 10:15:36;;;;;;;15.45;6.10;;;;;;;5.61;59.74;100325.75;1692077;84;21065;-73
2021/11/09 10:18:14;;;;;;;4.03;2.42;;;;;;;6.02;57.96;100334.66;1656566;85;38835;-73
2021/11/09 10:20:49;;;;;;;4.35;1.57;;;;;;;6.55;60.04;100341.63;1672202;84;21018;-74
2021/11/09 10:23:26;;;;;;;4.87;2.08;;;;;;;7.07;56.50;100339.20;1654344;86;21199;-72
2021/11/09 10:26:17;;;;;;;5.58;1.80;;;;;;;7.47;56.34;100339.72;1641255;85;20999;-73
2021/11/09 10:28:46;;;;;;;7.47;1.87;;;;;;;7.35;53.96;100348.20;1667533;85;20922;-73
2021/11/09 10:31:24;;;;;;;2.90;1.65;;;;;;;7.02;54.21;100339.20;1636316;86;21553;-74
2021/11/09 10:33:51;;;;;;;4.22;1.72;;;;;;;6.69;54.65;100338.66;1640826;85;21010;-73
2021/11/09 10:36:24;;;;;;;2.87;1.75;;;;;;;6.62;56.09;100340.28;1631428;86;21014;-73
2021/11/09 10:39:13;;;;;;;3.22;1.95;;;;;;;6.86;55.88;100345.22;1651966;84;20899;-79
2021/11/09 10:42:03;;;;;;;4.55;2.20;;;;;;;7.18;54.89;100345.75;1648282;85;21022;-71
2021/11/09 10:44:37;;;;;;;3.90;2.42;;;;;;;7.37;53.53;100352.03;1694300;84;20900;-74
2021/11/09 10:47:17;;;;;;;2.67;1.45;;;;;;;7.14;52.08;100348.76;1683991;84;20999;-77
2021/11/09 10:49:59;;;;;;;1.57;1.15;;;;;;;6.88;52.36;100345.77;1698585;82;21244;-76
2021/11/09 10:52:31;;;;;;;7.35;3.25;;;;;;;6.73;51.29;100347.12;1710737;83;21430;-79
2021/11/09 10:55:21;;;;;;;12.65;5.28;;;;;;;6.68;52.29;100351.20;1704763;83;21366;-73
2021/11/09 10:57:55;;;;;;;5.20;2.98;;;;;;;6.68;51.50;100350.66;1674383;84;21530;-77
2021/11/09 11:06:33;;;;;;;4.83;2.00;;;;;;;7.35;50.68;100356.39;1696398;84;20899;-81
2021/11/09 11:09:17;;;;;;;2.87;1.50;;;;;;;7.67;49.90;100360.15;1681801;83;21424;-81
2021/11/09 11:11:48;;;;;;;2.08;0.95;;;;;;;7.68;48.80;100367.25;1676343;84;20979;-80
2021/11/09 11:14:36;;;;;;;1.98;1.12;;;;;;;7.68;48.03;100360.97;1693676;83;21173;-78
2021/11/09 11:17:02;;;;;;;3.15;1.55;;;;;;;8.10;47.94;100370.94;1704148;82;21924;-78
2021/11/09 11:19:46;;;;;;;2.02;1.27;;;;;;;8.71;46.38;100358.33;1698644;83;21042;-73
2021/11/09 11:22:30;;;;;;;6.92;2.62;;;;;;;9.35;46.07;100362.75;1686076;82;21010;-73
2021/11/09 11:25:01;;;;;;;4.95;2.40;;;;;;;10.13;44.03;100355.59;1705221;82;21042;-72
2021/11/09 11:27:34;;;;;;;5.28;2.62;;;;;;;10.63;41.69;100351.93;1690714;83;20935;-75
2021/11/09 11:30:03;;;;;;;4.67;1.62;;;;;;;11.01;40.71;100354.63;1710853;83;21276;-76
2021/11/09 11:32:32;;;;;;;3.08;1.55;;;;;;;11.29;40.78;100355.56;1717095;82;20978;-75
2021/11/09 11:35:07;;;;;;;3.30;2.15;;;;;;;11.61;38.88;100352.77;1691567;83;21486;-75
2021/11/09 11:37:39;;;;;;;4.12;1.98;;;;;;;11.85;38.22;100342.44;1720262;83;20923;-74
2021/11/09 11:40:10;;;;;;;5.87;2.45;;;;;;;11.95;36.61;100356.56;1710715;83;21019;-75
2021/11/09 11:42:39;;;;;;;7.78;4.33;;;;;;;12.10;37.47;100353.50;1715158;83;21205;-75
2021/11/09 11:45:08;;;;;;;7.65;3.65;;;;;;;12.22;35.97;100357.09;1719178;82;21489;-76
2021/11/09 11:47:41;;;;;;;3.08;1.42;;;;;;;12.16;36.20;100359.69;1716189;83;20947;-75
2021/11/09 11:50:12;;;;;;;4.12;1.40;;;;;;;12.20;34.54;100364.84;1715158;83;20966;-74
2021/11/09 11:52:48;;;;;;;3.70;1.32;;;;;;;12.19;34.47;100368.16;1686145;82;20847;-75
2021/11/09 11:55:29;;;;;;;3.08;1.62;;;;;;;12.39;35.10;100372.98;1702565;83;21176;-79
2021/11/09 11:58:11;;;;;;;2.17;0.90;;;;;;;12.33;34.65;100381.91;1704373;82;21447;-80
2021/11/09 12:00:42;;;;;;;6.83;1.32;;;;;;;12.17;34.93;100381.97;1704106;82;20873;-78
2021/11/09 12:03:27;;;;;;;2.25;1.17;;;;;;;12.18;35.15;100383.03;1691301;84;21715;-73
2021/11/09 12:06:03;;;;;;;4.05;1.37;;;;;;;12.55;34.76;100388.06;1706319;83;20991;-82
2021/11/09 12:08:42;;;;;;;5.08;2.00;;;;;;;12.84;35.13;100394.56;1709845;82;21160;-84
2021/11/09 12:11:26;;;;;;;2.37;1.10;;;;;;;12.89;32.69;100391.69;1710947;83;20987;-79
2021/11/09 12:14:02;;;;;;;2.05;1.02;;;;;;;12.37;34.25;100395.32;1683818;84;20920;-79
2021/11/09 12:16:52;;;;;;;3.65;1.60;;;;;;;12.18;34.03;100400.11;1694646;83;20976;-86
2021/11/09 12:19:47;;;;;;;3.42;1.40;;;;;;;12.08;34.89;100405.28;1683203;83;21835;-80
2021/11/09 12:22:22;;;;;;;1.90;1.40;;;;;;;12.49;33.21;100403.88;1700899;83;21243;-82
2021/11/09 12:25:00;;;;;;;4.35;1.82;;;;;;;12.30;33.04;100408.68;1687978;83;21046;-88
2021/11/09 12:27:30;;;;;;;6.60;3.02;;;;;;;12.10;33.79;100402.23;1694137;83;20908;-86
2021/11/09 12:30:05;;;;;;;8.15;3.50;;;;;;;12.10;34.37;100401.67;1697711;83;20881;-83
2021/11/09 12:32:38;;;;;;;8.00;3.25;;;;;;;12.06;33.47;100412.22;1704945;82;20983;-84
2021/11/09 12:35:11;;;;;;;6.58;4.00;;;;;;;11.66;33.46;100395.86;1644217;86;21153;-74
2021/11/09 12:37:46;;;;;;;10.10;5.20;;;;;;;11.51;34.17;100416.22;1718547;83;21517;-80
2021/11/09 12:40:36;;;;;;;7.60;3.95;;;;;;;11.28;33.47;100415.77;1711082;83;20984;-80
2021/11/09 12:43:16;;;;;;;12.43;4.97;;;;;;;10.86;36.13;100423.02;1707315;83;20892;-81
2021/11/09 12:46:02;;;;;;;9.40;4.72;;;;;;;10.49;34.46;100437.50;1708173;83;20904;-75
2021/11/09 12:48:33;;;;;;;4.35;2.45;;;;;;;10.31;35.00;100436.38;1706398;83;21703;-79
2021/11/09 12:51:06;;;;;;;6.55;3.20;;;;;;;10.43;34.88;100429.88;1676606;85;21484;-89
2021/11/09 12:53:37;;;;;;;5.25;2.92;;;;;;;10.73;34.02;100445.16;1672932;85;21440;-76
2021/11/09 12:56:12;;;;;;;4.87;2.25;;;;;;;10.82;33.92;100452.19;1699090;84;21520;-80
2021/11/09 12:58:50;;;;;;;8.05;3.35;;;;;;;10.96;33.53;100441.28;1692798;82;20963;-79
2021/11/09 13:01:25;;;;;;;4.95;2.58;;;;;;;10.93;33.95;100458.36;1695886;84;21157;-81
2021/11/09 13:07:14;;;;;;;4.30;2.90;;;;;;;10.76;34.93;100465.72;1682002;85;20947;-80
2021/11/09 13:09:51;;;;;;;7.35;4.03;;;;;;;10.69;34.82;100473.50;1672534;84;20889;-82
2021/11/09 13:12:30;;;;;;;8.10;4.08;;;;;;;10.39;35.41;100479.64;1694477;84;20883;-74
2021/11/09 13:15:09;;;;;;;3.70;2.10;;;;;;;10.03;36.19;100492.06;1701079;84;21581;-75
2021/11/09 13:17:46;;;;;;;1.85;1.37;;;;;;;9.82;36.64;100495.57;1681251;84;20848;-78
2021/11/09 13:20:34;;;;;;;8.78;2.20;;;;;;;9.55;37.27;100507.02;1673006;84;20955;-82
2021/11/09 13:23:02;;;;;;;4.30;2.40;;;;;;;9.30;37.51;100511.30;1707896;82;21595;-81
2021/11/09 13:25:34;;;;;;;5.25;2.42;;;;;;;8.96;37.89;100509.88;1704552;83;21581;-75
2021/11/09 13:28:14;;;;;;;7.87;2.77;;;;;;;8.81;38.63;100510.21;1692670;84;21142;-83
2021/11/09 13:30:48;;;;;;;4.35;2.05;;;;;;;8.81;38.45;100517.61;1705908;82;21438;-74
2021/11/09 13:33:15;;;;;;;4.92;2.20;;;;;;;8.70;39.18;100522.85;1703269;83;20904;-82
2021/11/09 13:35:44;;;;;;;7.83;2.70;;;;;;;8.52;38.76;100528.41;1700614;84;20995;-76
2021/11/09 13:38:25;;;;;;;4.97;2.33;;;;;;;8.23;39.49;100531.72;1662655;85;21457;-75
2021/11/09 13:40:55;;;;;;;5.65;2.42;;;;;;;8.24;39.69;100526.52;1695476;84;21107;-84
2021/11/09 13:43:33;;;;;;;9.23;2.45;;;;;;;8.44;40.03;100544.03;1701472;84;20868;-80
2021/11/09 13:46:13;;;;;;;5.72;2.52;;;;;;;8.75;39.10;100550.20;1696090;84;21040;-86
2021/11/09 13:48:47;;;;;;;4.35;2.22;;;;;;;8.89;38.35;100539.75;1688658;84;20981;-77
2021/11/09 13:51:20;;;;;;;8.43;2.72;;;;;;;8.76;38.82;100555.95;1711932;81;21860;-76
2021/11/09 13:54:04;;;;;;;8.08;4.17;;;;;;;8.43;39.26;100563.73;1683759;84;20940;-76
2021/11/09 13:56:36;;;;;;;15.45;7.35;;;;;;;7.99;39.94;100563.50;1702858;83;20944;-74
2021/11/09 13:59:16;;;;;;;10.00;4.53;;;;;;;7.48;40.67;100575.77;1680536;84;20957;-80
2021/11/09 14:02:03;;;;;;;11.40;5.78;;;;;;;6.93;41.96;100572.34;1671989;84;21501;-81
2021/11/09 14:07:45;;;;;;;11.55;5.45;;;;;;;6.01;44.10;100590.06;1689272;83;21921;-83
2021/11/09 14:16:17;;;;;;;17.70;8.68;;;;;;;4.99;46.81;100614.06;1659179;85;20179;-75
2021/11/09 14:18:34;;;;;;;13.18;6.87;;;;;;;4.72;47.38;100618.59;1681311;85;20886;-74
2021/11/09 14:21:07;;;;;;;13.75;6.08;;;;;;;4.38;48.33;100624.11;1683777;85;21189;-74
2021/11/09 14:23:40;;;;;;;21.62;7.58;;;;;;;4.21;48.55;100632.80;1706962;83;20876;-77
2021/11/09 14:26:31;;;;;;;20.55;8.70;;;;;;;4.02;49.48;100630.07;1717802;83;21485;-76
2021/11/09 14:28:59;;;;;;;20.02;9.25;;;;;;;3.89;49.74;100633.92;1701035;84;21105;-76